sensor_id;sensor_type;location;lat;lon;timestamp;pressure;altitude;pressure_sealevel;temperature;humidity
19208;BME280;9737;59.466;18.036;2023-08-24T00:01:14;99315.84;;;16.31;69.48
19208;BME280;9737;59.466;18.036;2023-08-24T00:03:44;99305.47;;;16.28;69.50
19208;BME280;9737;59.466;18.036;2023-08-24T00:06:12;99297.13;;;16.23;69.61
19208;BME280;9737;59.466;18.036;2023-08-24T00:08:41;99279.34;;;16.22;69.65
19208;BME280;9737;59.466;18.036;2023-08-24T00:11:10;99268.81;;;16.13;69.79
19208;BME280;9737;59.466;18.036;2023-08-24T00:13:42;99266.44;;;16.18;69.65
19208;BME280;9737;59.466;18.036;2023-08-24T00:16:17;99270.97;;;16.17;69.96
19208;BME280;9737;59.466;18.036;2023-08-24T00:18:46;99258.94;;;16.13;70.02
19208;BME280;9737;59.466;18.036;2023-08-24T00:21:14;99251.91;;;16.12;69.98
19208;BME280;9737;59.466;18.036;2023-08-24T00:23:43;99257.25;;;16.12;70.05
19208;BME280;9737;59.466;18.036;2023-08-24T00:26:11;99268.47;;;16.16;70.05
19208;BME280;9737;59.466;18.036;2023-08-24T00:28:39;99285.91;;;16.20;70.25
19208;BME280;9737;59.466;18.036;2023-08-24T00:31:07;99292.09;;;16.20;70.24
19208;BME280;9737;59.466;18.036;2023-08-24T00:33:37;99295.81;;;16.19;70.11
19208;BME280;9737;59.466;18.036;2023-08-24T00:36:06;99313.88;;;16.25;70.50
19208;BME280;9737;59.466;18.036;2023-08-24T00:38:35;99322.75;;;16.26;70.43
19208;BME280;9737;59.466;18.036;2023-08-24T00:41:03;99324.41;;;16.27;70.60
19208;BME280;9737;59.466;18.036;2023-08-24T00:43:31;99338.31;;;16.30;70.69
19208;BME280;9737;59.466;18.036;2023-08-24T00:46:00;99355.06;;;16.32;70.86
19208;BME280;9737;59.466;18.036;2023-08-24T00:48:29;99361.44;;;16.31;70.86
19208;BME280;9737;59.466;18.036;2023-08-24T00:51:01;99355.06;;;16.32;70.94
19208;BME280;9737;59.466;18.036;2023-08-24T00:53:30;99382.84;;;16.39;71.03
19208;BME280;9737;59.466;18.036;2023-08-24T00:55:59;99376.19;;;16.35;70.98
19208;BME280;9737;59.466;18.036;2023-08-24T00:58:28;99402.31;;;16.41;70.97
19208;BME280;9737;59.466;18.036;2023-08-24T01:00:56;99389.06;;;16.40;71.19
19208;BME280;9737;59.466;18.036;2023-08-24T01:03:25;99385.06;;;16.36;71.28
19208;BME280;9737;59.466;18.036;2023-08-24T01:05:53;99380.72;;;16.35;71.22
19208;BME280;9737;59.466;18.036;2023-08-24T01:08:23;99366.81;;;16.31;71.27
19208;BME280;9737;59.466;18.036;2023-08-24T01:10:59;99355.97;;;16.25;71.61
19208;BME280;9737;59.466;18.036;2023-08-24T01:13:34;99344.22;;;16.26;71.47
19208;BME280;9737;59.466;18.036;2023-08-24T01:16:08;99362.47;;;16.30;71.67
19208;BME280;9737;59.466;18.036;2023-08-24T01:18:38;99350.41;;;16.26;71.85
19208;BME280;9737;59.466;18.036;2023-08-24T01:21:07;99337.34;;;16.23;71.68
19208;BME280;9737;59.466;18.036;2023-08-24T01:23:42;99333.00;;;16.22;71.71
19208;BME280;9737;59.466;18.036;2023-08-24T01:26:16;99346.06;;;16.25;71.92
19208;BME280;9737;59.466;18.036;2023-08-24T01:28:45;99381.91;;;16.32;72.01
19208;BME280;9737;59.466;18.036;2023-08-24T01:31:14;99390.78;;;16.33;72.05
19208;BME280;9737;59.466;18.036;2023-08-24T01:33:44;99359.13;;;16.28;72.11
19208;BME280;9737;59.466;18.036;2023-08-24T01:36:13;99361.16;;;16.26;72.04
19208;BME280;9737;59.466;18.036;2023-08-24T01:38:44;99369.84;;;16.28;72.14
19208;BME280;9737;59.466;18.036;2023-08-24T01:41:20;99362.31;;;16.24;72.09
19208;BME280;9737;59.466;18.036;2023-08-24T01:43:53;99363.00;;;16.26;72.20
19208;BME280;9737;59.466;18.036;2023-08-24T01:46:22;99360.47;;;16.24;72.41
19208;BME280;9737;59.466;18.036;2023-08-24T01:48:52;99359.81;;;16.22;72.64
19208;BME280;9737;59.466;18.036;2023-08-24T01:51:21;99323.97;;;16.15;72.66
19208;BME280;9737;59.466;18.036;2023-08-24T01:53:51;99299.22;;;16.05;72.53
19208;BME280;9737;59.466;18.036;2023-08-24T01:56:21;99294.50;;;16.07;72.51
19208;BME280;9737;59.466;18.036;2023-08-24T01:58:49;99276.09;;;16.04;72.69
19208;BME280;9737;59.466;18.036;2023-08-24T02:01:17;99272.75;;;16.02;72.93
19208;BME280;9737;59.466;18.036;2023-08-24T02:03:45;99266.06;;;15.98;72.77
19208;BME280;9737;59.466;18.036;2023-08-24T02:06:13;99247.84;;;15.93;72.76
19208;BME280;9737;59.466;18.036;2023-08-24T02:08:41;99222.22;;;15.91;72.83
19208;BME280;9737;59.466;18.036;2023-08-24T02:11:11;99218.00;;;15.88;72.83
19208;BME280;9737;59.466;18.036;2023-08-24T02:13:40;99221.69;;;15.87;73.03
19208;BME280;9737;59.466;18.036;2023-08-24T02:16:09;99207.16;;;15.82;72.97
19208;BME280;9737;59.466;18.036;2023-08-24T02:18:37;99208.66;;;15.84;73.34
19208;BME280;9737;59.466;18.036;2023-08-24T02:21:08;99228.56;;;15.90;73.38
19208;BME280;9737;59.466;18.036;2023-08-24T02:23:39;99243.66;;;15.91;73.23
19208;BME280;9737;59.466;18.036;2023-08-24T02:26:07;99231.22;;;15.90;73.62
19208;BME280;9737;59.466;18.036;2023-08-24T02:28:37;99246.81;;;15.94;73.58
19208;BME280;9737;59.466;18.036;2023-08-24T02:31:07;99229.56;;;15.89;73.52
19208;BME280;9737;59.466;18.036;2023-08-24T02:33:35;99237.59;;;15.89;73.42
19208;BME280;9737;59.466;18.036;2023-08-24T02:36:04;99254.03;;;15.94;73.59
19208;BME280;9737;59.466;18.036;2023-08-24T02:38:32;99250.69;;;15.92;73.54
19208;BME280;9737;59.466;18.036;2023-08-24T02:41:01;99233.25;;;15.88;73.57
19208;BME280;9737;59.466;18.036;2023-08-24T02:43:30;99247.31;;;15.90;73.98
19208;BME280;9737;59.466;18.036;2023-08-24T02:46:01;99248.19;;;15.90;73.73
19208;BME280;9737;59.466;18.036;2023-08-24T02:48:32;99235.63;;;15.83;73.72
19208;BME280;9737;59.466;18.036;2023-08-24T02:51:02;99245.66;;;15.89;73.93
19208;BME280;9737;59.466;18.036;2023-08-24T02:53:31;99249.16;;;15.89;74.05
19208;BME280;9737;59.466;18.036;2023-08-24T02:55:59;99301.59;;;16.00;73.93
19208;BME280;9737;59.466;18.036;2023-08-24T02:58:27;99263.91;;;15.93;74.19
19208;BME280;9737;59.466;18.036;2023-08-24T03:00:56;99228.25;;;15.85;74.22
19208;BME280;9737;59.466;18.036;2023-08-24T03:03:24;99208.34;;;15.79;74.08
19208;BME280;9737;59.466;18.036;2023-08-24T03:05:55;99189.63;;;15.71;74.29
19208;BME280;9737;59.466;18.036;2023-08-24T03:08:24;99171.88;;;15.70;74.35
19208;BME280;9737;59.466;18.036;2023-08-24T03:10:52;99170.22;;;15.69;74.31
19208;BME280;9737;59.466;18.036;2023-08-24T03:13:20;99178.25;;;15.69;74.23
19208;BME280;9737;59.466;18.036;2023-08-24T03:15:48;99166.88;;;15.67;74.59
19208;BME280;9737;59.466;18.036;2023-08-24T03:18:16;99148.66;;;15.62;74.61
19208;BME280;9737;59.466;18.036;2023-08-24T03:20:45;99145.28;;;15.60;74.73
19208;BME280;9737;59.466;18.036;2023-08-24T03:23:15;99134.88;;;15.57;74.49
19208;BME280;9737;59.466;18.036;2023-08-24T03:25:43;99119.16;;;15.54;74.83
19208;BME280;9737;59.466;18.036;2023-08-24T03:28:11;99119.16;;;15.54;74.80
19208;BME280;9737;59.466;18.036;2023-08-24T03:30:46;99091.41;;;15.47;75.18
19208;BME280;9737;59.466;18.036;2023-08-24T03:33:15;99067.38;;;15.39;74.67
19208;BME280;9737;59.466;18.036;2023-08-24T03:35:43;99065.53;;;15.39;75.13
19208;BME280;9737;59.466;18.036;2023-08-24T03:38:11;99048.78;;;15.37;75.31
19208;BME280;9737;59.466;18.036;2023-08-24T03:40:40;99036.25;;;15.30;75.15
19208;BME280;9737;59.466;18.036;2023-08-24T03:43:09;99035.94;;;15.33;74.99
19208;BME280;9737;59.466;18.036;2023-08-24T03:45:37;99021.19;;;15.29;74.99
19208;BME280;9737;59.466;18.036;2023-08-24T03:48:05;98992.63;;;15.21;75.06
19208;BME280;9737;59.466;18.036;2023-08-24T03:50:34;99007.34;;;15.25;75.37
19208;BME280;9737;59.466;18.036;2023-08-24T03:53:03;98982.09;;;15.19;75.52
19208;BME280;9737;59.466;18.036;2023-08-24T03:55:31;98984.97;;;15.18;75.26
19208;BME280;9737;59.466;18.036;2023-08-24T03:58:01;98953.09;;;15.00;75.25
19208;BME280;9737;59.466;18.036;2023-08-24T04:00:30;98994.47;;;15.21;75.53
19208;BME280;9737;59.466;18.036;2023-08-24T04:02:58;98984.78;;;15.19;75.68
19208;BME280;9737;59.466;18.036;2023-08-24T04:05:26;98989.13;;;15.21;75.52
19208;BME280;9737;59.466;18.036;2023-08-24T04:07:54;98993.66;;;15.20;75.87
19208;BME280;9737;59.466;18.036;2023-08-24T04:10:22;99006.69;;;15.23;75.48
19208;BME280;9737;59.466;18.036;2023-08-24T04:12:50;99040.59;;;15.31;75.67
19208;BME280;9737;59.466;18.036;2023-08-24T04:15:19;99105.16;;;15.44;75.96
19208;BME280;9737;59.466;18.036;2023-08-24T04:17:48;99108.50;;;15.46;76.04
19208;BME280;9737;59.466;18.036;2023-08-24T04:20:16;99139.13;;;15.52;76.10
19208;BME280;9737;59.466;18.036;2023-08-24T04:22:44;99160.00;;;15.56;76.07
19208;BME280;9737;59.466;18.036;2023-08-24T04:25:39;99174.75;;;15.60;76.29
19208;BME280;9737;59.466;18.036;2023-08-24T04:28:07;99219.28;;;15.69;76.26
19208;BME280;9737;59.466;18.036;2023-08-24T04:30:36;99215.13;;;15.67;76.34
19208;BME280;9737;59.466;18.036;2023-08-24T04:33:06;99262.78;;;15.79;76.48
19208;BME280;9737;59.466;18.036;2023-08-24T04:35:34;99285.56;;;15.84;76.17
19208;BME280;9737;59.466;18.036;2023-08-24T04:38:03;99305.47;;;15.89;76.22
19208;BME280;9737;59.466;18.036;2023-08-24T04:40:47;99337.81;;;15.96;76.47
19208;BME280;9737;59.466;18.036;2023-08-24T04:43:16;99374.28;;;16.05;76.51
19208;BME280;9737;59.466;18.036;2023-08-24T04:45:47;99406.44;;;16.13;76.52
19208;BME280;9737;59.466;18.036;2023-08-24T04:48:15;99440.66;;;16.19;76.81
19208;BME280;9737;59.466;18.036;2023-08-24T04:50:44;99477.16;;;16.28;76.62
19208;BME280;9737;59.466;18.036;2023-08-24T04:53:14;99497.09;;;16.34;76.67
19208;BME280;9737;59.466;18.036;2023-08-24T04:55:43;99508.69;;;16.26;76.83
19208;BME280;9737;59.466;18.036;2023-08-24T04:58:11;99524.41;;;16.37;76.91
19208;BME280;9737;59.466;18.036;2023-08-24T05:00:40;99531.28;;;16.40;76.98
19208;BME280;9737;59.466;18.036;2023-08-24T05:03:09;99576.72;;;16.50;77.03
19208;BME280;9737;59.466;18.036;2023-08-24T05:05:37;99586.47;;;16.51;77.12
19208;BME280;9737;59.466;18.036;2023-08-24T05:08:06;99589.31;;;16.49;77.16
19208;BME280;9737;59.466;18.036;2023-08-24T05:10:39;99595.19;;;16.53;77.21
19208;BME280;9737;59.466;18.036;2023-08-24T05:13:07;99583.78;;;16.51;77.24
19208;BME280;9737;59.466;18.036;2023-08-24T05:15:35;99611.94;;;16.55;77.08
19208;BME280;9737;59.466;18.036;2023-08-24T05:18:03;99607.41;;;16.55;77.23
19208;BME280;9737;59.466;18.036;2023-08-24T05:20:32;99630.22;;;16.59;77.44
19208;BME280;9737;59.466;18.036;2023-08-24T05:23:00;99638.09;;;16.61;77.30
19208;BME280;9737;59.466;18.036;2023-08-24T05:25:28;99653.84;;;16.64;77.42
19208;BME280;9737;59.466;18.036;2023-08-24T05:27:56;99654.03;;;16.62;77.39
19208;BME280;9737;59.466;18.036;2023-08-24T05:30:24;99689.44;;;16.74;77.41
19208;BME280;9737;59.466;18.036;2023-08-24T05:32:55;99753.06;;;16.82;77.46
19208;BME280;9737;59.466;18.036;2023-08-24T05:35:23;99760.59;;;16.86;77.46
19208;BME280;9737;59.466;18.036;2023-08-24T05:37:55;99744.16;;;16.81;77.52
19208;BME280;9737;59.466;18.036;2023-08-24T05:40:23;99791.13;;;16.93;77.59
19208;BME280;9737;59.466;18.036;2023-08-24T05:42:51;99808.44;;;16.91;77.43
19208;BME280;9737;59.466;18.036;2023-08-24T05:45:20;99850.41;;;17.08;77.63
19208;BME280;9737;59.466;18.036;2023-08-24T05:47:52;99873.22;;;17.12;77.64
19208;BME280;9737;59.466;18.036;2023-08-24T05:50:20;99882.81;;;17.15;77.70
19208;BME280;9737;59.466;18.036;2023-08-24T05:52:48;99876.59;;;17.14;77.66
19208;BME280;9737;59.466;18.036;2023-08-24T05:55:17;99881.97;;;17.14;77.62
19208;BME280;9737;59.466;18.036;2023-08-24T05:57:46;99884.47;;;17.16;77.74
19208;BME280;9737;59.466;18.036;2023-08-24T06:00:17;99890.03;;;17.14;77.68
19208;BME280;9737;59.466;18.036;2023-08-24T06:02:45;99875.09;;;17.12;77.83
19208;BME280;9737;59.466;18.036;2023-08-24T06:05:13;99878.59;;;17.12;77.71
19208;BME280;9737;59.466;18.036;2023-08-24T06:07:41;99899.59;;;17.17;77.76
19208;BME280;9737;59.466;18.036;2023-08-24T06:10:10;99897.75;;;17.17;77.76
19208;BME280;9737;59.466;18.036;2023-08-24T06:12:39;99879.44;;;17.13;77.57
19208;BME280;9737;59.466;18.036;2023-08-24T06:15:08;99879.44;;;17.13;77.70
19208;BME280;9737;59.466;18.036;2023-08-24T06:17:37;99884.81;;;17.13;77.79
19208;BME280;9737;59.466;18.036;2023-08-24T06:20:06;99841.97;;;17.03;77.89
19208;BME280;9737;59.466;18.036;2023-08-24T06:22:37;99818.50;;;16.97;77.93
19208;BME280;9737;59.466;18.036;2023-08-24T06:25:06;99837.78;;;17.00;77.80
19208;BME280;9737;59.466;18.036;2023-08-24T06:27:35;99873.41;;;17.11;77.83
19208;BME280;9737;59.466;18.036;2023-08-24T06:30:06;99864.69;;;17.09;77.82
19208;BME280;9737;59.466;18.036;2023-08-24T06:32:34;99978.03;;;17.37;77.75
19208;BME280;9737;59.466;18.036;2023-08-24T06:35:04;100054.31;;;17.52;77.76
19208;BME280;9737;59.466;18.036;2023-08-24T06:37:32;100024.56;;;17.45;77.82
19208;BME280;9737;59.466;18.036;2023-08-24T06:40:00;100067.59;;;17.53;77.84
19208;BME280;9737;59.466;18.036;2023-08-24T06:42:30;100109.59;;;17.62;77.75
19208;BME280;9737;59.466;18.036;2023-08-24T06:44:57;100117.38;;;17.65;77.76
19208;BME280;9737;59.466;18.036;2023-08-24T06:47:27;100154.38;;;17.72;77.76
19208;BME280;9737;59.466;18.036;2023-08-24T06:49:54;100201.47;;;17.84;77.79
19208;BME280;9737;59.466;18.036;2023-08-24T06:52:22;100180.44;;;17.79;77.81
19208;BME280;9737;59.466;18.036;2023-08-24T06:54:51;100184.81;;;17.80;77.72
19208;BME280;9737;59.466;18.036;2023-08-24T06:57:20;100152.69;;;17.71;77.67
19208;BME280;9737;59.466;18.036;2023-08-24T06:59:48;100151.31;;;17.67;77.87
19208;BME280;9737;59.466;18.036;2023-08-24T07:02:16;100120.22;;;17.64;77.73
19208;BME280;9737;59.466;18.036;2023-08-24T07:04:46;100128.13;;;17.65;77.77
19208;BME280;9737;59.466;18.036;2023-08-24T07:07:14;100087.59;;;17.59;77.82
19208;BME280;9737;59.466;18.036;2023-08-24T07:09:42;100138.03;;;17.65;77.66
19208;BME280;9737;59.466;18.036;2023-08-24T07:12:10;100143.97;;;17.69;77.79
19208;BME280;9737;59.466;18.036;2023-08-24T07:14:38;100150.69;;;17.73;77.80
19208;BME280;9737;59.466;18.036;2023-08-24T07:17:06;100185.66;;;17.81;77.81
19208;BME280;9737;59.466;18.036;2023-08-24T07:19:34;100232.25;;;17.89;77.68
19208;BME280;9737;59.466;18.036;2023-08-24T07:22:03;100246.22;;;17.93;77.72
19208;BME280;9737;59.466;18.036;2023-08-24T07:24:31;100246.22;;;17.93;77.62
19208;BME280;9737;59.466;18.036;2023-08-24T07:27:11;100229.38;;;17.91;77.67
19208;BME280;9737;59.466;18.036;2023-08-24T07:29:39;100301.41;;;18.05;77.68
19208;BME280;9737;59.466;18.036;2023-08-24T07:32:08;100311.84;;;18.08;77.71
19208;BME280;9737;59.466;18.036;2023-08-24T07:34:36;100401.22;;;18.28;77.66
19208;BME280;9737;59.466;18.036;2023-08-24T07:37:05;100567.69;;;18.67;77.46
19208;BME280;9737;59.466;18.036;2023-08-24T07:39:33;100706.44;;;18.97;77.78
19208;BME280;9737;59.466;18.036;2023-08-24T07:42:01;100816.25;;;19.21;77.69
19208;BME280;9737;59.466;18.036;2023-08-24T07:44:29;100869.75;;;19.33;77.72
19208;BME280;9737;59.466;18.036;2023-08-24T07:46:57;100840.88;;;19.26;77.73
19208;BME280;9737;59.466;18.036;2023-08-24T07:49:24;100700.34;;;18.95;77.66
19208;BME280;9737;59.466;18.036;2023-08-24T07:51:52;100604.59;;;18.74;77.59
19208;BME280;9737;59.466;18.036;2023-08-24T07:54:21;100537.00;;;18.60;77.55
19208;BME280;9737;59.466;18.036;2023-08-24T07:56:49;100517.78;;;18.54;77.62
19208;BME280;9737;59.466;18.036;2023-08-24T07:59:17;100497.72;;;18.49;77.61
19208;BME280;9737;59.466;18.036;2023-08-24T08:01:45;100523.84;;;18.56;77.47
19208;BME280;9737;59.466;18.036;2023-08-24T08:04:13;100558.09;;;18.64;77.27
19208;BME280;9737;59.466;18.036;2023-08-24T08:06:40;100627.50;;;18.78;77.13
19208;BME280;9737;59.466;18.036;2023-08-24T08:09:08;100809.84;;;19.22;77.53
19208;BME280;9737;59.466;18.036;2023-08-24T08:11:37;100859.97;;;19.32;77.33
19208;BME280;9737;59.466;18.036;2023-08-24T08:14:05;100923.97;;;19.48;77.31
19208;BME280;9737;59.466;18.036;2023-08-24T08:16:33;101053.38;;;19.75;77.24
19208;BME280;9737;59.466;18.036;2023-08-24T08:19:01;101247.06;;;20.17;77.36
19208;BME280;9737;59.466;18.036;2023-08-24T08:21:29;101433.06;;;20.57;77.21
19208;BME280;9737;59.466;18.036;2023-08-24T08:23:57;101388.03;;;20.48;77.28
19208;BME280;9737;59.466;18.036;2023-08-24T08:26:24;101393.25;;;20.50;77.36
19208;BME280;9737;59.466;18.036;2023-08-24T08:28:54;101499.78;;;20.75;77.23
19208;BME280;9737;59.466;18.036;2023-08-24T08:31:22;101554.66;;;20.85;77.14
19208;BME280;9737;59.466;18.036;2023-08-24T08:33:49;101583.63;;;20.92;77.16
19208;BME280;9737;59.466;18.036;2023-08-24T08:36:19;101578.22;;;20.92;77.03
19208;BME280;9737;59.466;18.036;2023-08-24T08:38:47;101554.34;;;20.88;77.10
19208;BME280;9737;59.466;18.036;2023-08-24T08:41:17;101618.00;;;21.00;77.00
19208;BME280;9737;59.466;18.036;2023-08-24T08:43:49;101592.97;;;20.98;76.81
19208;BME280;9737;59.466;18.036;2023-08-24T08:46:18;101547.38;;;20.85;76.78
19208;BME280;9737;59.466;18.036;2023-08-24T08:48:46;101611.91;;;20.98;76.70
19208;BME280;9737;59.466;18.036;2023-08-24T08:51:17;101912.78;;;21.66;76.64
19208;BME280;9737;59.466;18.036;2023-08-24T08:53:45;102066.59;;;22.00;76.65
19208;BME280;9737;59.466;18.036;2023-08-24T08:56:13;102190.50;;;22.27;76.53
19208;BME280;9737;59.466;18.036;2023-08-24T08:58:42;102142.00;;;22.14;76.79
19208;BME280;9737;59.466;18.036;2023-08-24T09:01:11;102213.44;;;22.32;76.57
19208;BME280;9737;59.466;18.036;2023-08-24T09:03:41;102241.66;;;22.39;76.54
19208;BME280;9737;59.466;18.036;2023-08-24T09:06:10;102132.03;;;22.14;76.39
19208;BME280;9737;59.466;18.036;2023-08-24T09:08:38;102083.41;;;22.03;76.08
19208;BME280;9737;59.466;18.036;2023-08-24T09:11:06;102066.63;;;21.90;76.17
19208;BME280;9737;59.466;18.036;2023-08-24T09:13:35;101865.94;;;21.56;76.31
19208;BME280;9737;59.466;18.036;2023-08-24T09:16:03;101720.81;;;21.27;76.13
19208;BME280;9737;59.466;18.036;2023-08-24T09:18:36;101610.44;;;21.03;75.96
19208;BME280;9737;59.466;18.036;2023-08-24T09:21:09;101634.16;;;21.10;75.76
19208;BME280;9737;59.466;18.036;2023-08-24T09:23:38;101610.44;;;21.03;75.73
19208;BME280;9737;59.466;18.036;2023-08-24T09:26:10;101602.16;;;21.05;75.68
19208;BME280;9737;59.466;18.036;2023-08-24T09:28:42;101646.25;;;21.15;75.54
19208;BME280;9737;59.466;18.036;2023-08-24T09:31:11;101712.38;;;21.30;75.49
19208;BME280;9737;59.466;18.036;2023-08-24T09:33:42;101878.56;;;21.65;75.24
19208;BME280;9737;59.466;18.036;2023-08-24T09:36:13;101855.53;;;21.61;75.29
19208;BME280;9737;59.466;18.036;2023-08-24T09:38:46;101846.69;;;21.59;75.17
19208;BME280;9737;59.466;18.036;2023-08-24T09:41:15;101922.56;;;21.77;75.05
19208;BME280;9737;59.466;18.036;2023-08-24T09:43:43;102075.72;;;22.08;75.22
19208;BME280;9737;59.466;18.036;2023-08-24T09:46:10;102115.31;;;22.19;74.93
19208;BME280;9737;59.466;18.036;2023-08-24T09:48:38;102019.56;;;22.01;74.76
19208;BME280;9737;59.466;18.036;2023-08-24T09:51:07;101806.69;;;21.53;74.95
19208;BME280;9737;59.466;18.036;2023-08-24T09:53:37;101577.28;;;21.01;74.95
19208;BME280;9737;59.466;18.036;2023-08-24T09:56:08;101414.91;;;20.67;74.69
19208;BME280;9737;59.466;18.036;2023-08-24T09:58:36;101318.78;;;20.47;74.62
19208;BME280;9737;59.466;18.036;2023-08-24T10:01:04;101317.06;;;20.46;74.46
19208;BME280;9737;59.466;18.036;2023-08-24T10:03:33;101437.75;;;20.73;74.44
19208;BME280;9737;59.466;18.036;2023-08-24T10:06:05;101639.53;;;21.19;74.21
19208;BME280;9737;59.466;18.036;2023-08-24T10:08:39;101958.13;;;21.91;74.31
19208;BME280;9737;59.466;18.036;2023-08-24T10:11:07;102704.84;;;23.53;74.30
19208;BME280;9737;59.466;18.036;2023-08-24T10:13:47;103318.63;;;24.80;74.04
19208;BME280;9737;59.466;18.036;2023-08-24T10:16:18;103240.25;;;24.64;74.33
19208;BME280;9737;59.466;18.036;2023-08-24T10:18:48;103166.44;;;24.48;74.24
19208;BME280;9737;59.466;18.036;2023-08-24T10:21:18;103063.97;;;24.27;74.06
19208;BME280;9737;59.466;18.036;2023-08-24T10:23:48;102782.06;;;23.70;74.05
19208;BME280;9737;59.466;18.036;2023-08-24T10:26:16;102665.97;;;23.43;73.95
19208;BME280;9737;59.466;18.036;2023-08-24T10:28:46;102823.84;;;23.78;73.50
19208;BME280;9737;59.466;18.036;2023-08-24T10:31:14;103388.78;;;24.97;73.62
19208;BME280;9737;59.466;18.036;2023-08-24T10:33:42;104029.56;;;26.30;73.32
19208;BME280;9737;59.466;18.036;2023-08-24T10:36:12;103953.47;;;26.16;73.75
19208;BME280;9737;59.466;18.036;2023-08-24T10:38:41;103470.72;;;25.15;73.40
19208;BME280;9737;59.466;18.036;2023-08-24T10:41:11;102853.88;;;23.87;73.19
19208;BME280;9737;59.466;18.036;2023-08-24T10:43:48;102835.16;;;23.84;72.89
19208;BME280;9737;59.466;18.036;2023-08-24T10:46:17;103552.28;;;25.37;72.92
19208;BME280;9737;59.466;18.036;2023-08-24T10:48:57;104116.59;;;26.55;72.71
19208;BME280;9737;59.466;18.036;2023-08-24T10:51:25;103646.06;;;25.55;72.89
19208;BME280;9737;59.466;18.036;2023-08-24T10:53:56;103285.84;;;24.81;72.89
19208;BME280;9737;59.466;18.036;2023-08-24T10:56:35;102881.91;;;23.97;72.39
19208;BME280;9737;59.466;18.036;2023-08-24T10:59:12;102955.47;;;24.15;72.34
19208;BME280;9737;59.466;18.036;2023-08-24T11:01:41;103351.28;;;25.00;72.16
19208;BME280;9737;59.466;18.036;2023-08-24T11:04:10;103458.31;;;25.22;72.17
19208;BME280;9737;59.466;18.036;2023-08-24T11:06:52;103296.66;;;24.92;71.89
19208;BME280;9737;59.466;18.036;2023-08-24T11:09:22;103084.09;;;24.46;71.75
19208;BME280;9737;59.466;18.036;2023-08-24T11:11:59;102796.94;;;23.85;71.96
19208;BME280;9737;59.466;18.036;2023-08-24T11:14:28;102542.22;;;23.31;71.62
19208;BME280;9737;59.466;18.036;2023-08-24T11:16:58;102167.97;;;22.53;71.58
19208;BME280;9737;59.466;18.036;2023-08-24T11:19:26;101923.88;;;22.00;71.34
19208;BME280;9737;59.466;18.036;2023-08-24T11:21:54;101853.09;;;21.85;71.17
19208;BME280;9737;59.466;18.036;2023-08-24T11:24:22;102226.72;;;22.72;70.66
19208;BME280;9737;59.466;18.036;2023-08-24T11:26:50;103090.16;;;24.59;70.72
19208;BME280;9737;59.466;18.036;2023-08-24T11:29:20;103900.56;;;26.28;70.61
19208;BME280;9737;59.466;18.036;2023-08-24T11:31:48;104735.19;;;27.98;70.86
19208;BME280;9737;59.466;18.036;2023-08-24T11:34:16;105109.69;;;28.75;70.66
19208;BME280;9737;59.466;18.036;2023-08-24T11:36:47;105050.63;;;28.59;70.42
19208;BME280;9737;59.466;18.036;2023-08-24T11:39:16;105039.66;;;28.59;70.50
19208;BME280;9737;59.466;18.036;2023-08-24T11:41:57;105266.28;;;29.05;70.30
19208;BME280;9737;59.466;18.036;2023-08-24T11:44:26;105379.53;;;29.29;70.03
19208;BME280;9737;59.466;18.036;2023-08-24T11:46:56;105462.41;;;29.46;70.06
19208;BME280;9737;59.466;18.036;2023-08-24T11:49:25;105766.84;;;30.09;69.83
19208;BME280;9737;59.466;18.036;2023-08-24T11:51:53;106391.13;;;31.32;69.43
19208;BME280;9737;59.466;18.036;2023-08-24T11:54:21;106592.03;;;31.71;69.23
19208;BME280;9737;59.466;18.036;2023-08-24T11:56:48;106600.09;;;31.74;69.54
19208;BME280;9737;59.466;18.036;2023-08-24T11:59:16;106782.25;;;32.10;68.89
19208;BME280;9737;59.466;18.036;2023-08-24T12:01:47;106439.56;;;31.47;68.89
19208;BME280;9737;59.466;18.036;2023-08-24T12:04:14;106612.25;;;31.85;68.48
19208;BME280;9737;59.466;18.036;2023-08-24T12:06:44;106028.84;;;30.70;68.69
19208;BME280;9737;59.466;18.036;2023-08-24T12:09:12;105520.63;;;29.73;68.49
19208;BME280;9737;59.466;18.036;2023-08-24T12:11:41;104792.19;;;28.27;68.58
19208;BME280;9737;59.466;18.036;2023-08-24T12:14:16;104304.06;;;27.32;68.26
19208;BME280;9737;59.466;18.036;2023-08-24T12:16:46;104004.94;;;26.73;67.88
19208;BME280;9737;59.466;18.036;2023-08-24T12:19:16;104121.03;;;27.00;67.72
19208;BME280;9737;59.466;18.036;2023-08-24T12:21:44;104306.13;;;27.39;67.00
19208;BME280;9737;59.466;18.036;2023-08-24T12:24:13;104178.06;;;27.14;67.02
19208;BME280;9737;59.466;18.036;2023-08-24T12:26:41;104480.28;;;27.82;66.98
19208;BME280;9737;59.466;18.036;2023-08-24T12:29:10;104235.88;;;27.30;66.80
19208;BME280;9737;59.466;18.036;2023-08-24T12:31:42;104511.44;;;27.91;66.71
19208;BME280;9737;59.466;18.036;2023-08-24T12:34:14;104758.19;;;28.41;66.34
19208;BME280;9737;59.466;18.036;2023-08-24T12:36:42;104632.41;;;28.17;66.12
19208;BME280;9737;59.466;18.036;2023-08-24T12:39:11;104175.53;;;27.22;66.38
19208;BME280;9737;59.466;18.036;2023-08-24T12:41:40;103705.25;;;26.25;66.16
19208;BME280;9737;59.466;18.036;2023-08-24T12:44:08;103738.81;;;26.37;65.46
19208;BME280;9737;59.466;18.036;2023-08-24T12:46:40;103962.88;;;26.85;65.75
19208;BME280;9737;59.466;18.036;2023-08-24T12:49:07;104301.84;;;27.58;65.50
19208;BME280;9737;59.466;18.036;2023-08-24T12:51:36;104609.13;;;28.22;65.14
19208;BME280;9737;59.466;18.036;2023-08-24T12:54:06;104884.63;;;28.79;64.85
19208;BME280;9737;59.466;18.036;2023-08-24T12:56:38;104884.50;;;28.81;65.07
19208;BME280;9737;59.466;18.036;2023-08-24T12:59:07;104500.59;;;28.00;64.73
19208;BME280;9737;59.466;18.036;2023-08-24T13:01:35;104571.06;;;28.19;64.79
19208;BME280;9737;59.466;18.036;2023-08-24T13:04:03;104551.16;;;28.17;64.31
19208;BME280;9737;59.466;18.036;2023-08-24T13:06:32;104820.38;;;28.72;64.22